Time;durP1;ratioP1;P1;durP2;ratioP2;P2;SDS_P1;SDS_P2;PMS_P1;PMS_P2;Temp;Humidity;BMP_temperature;BMP_pressure;BME280_temperature;BME280_humidity;BME280_pressure;Samples;Min_cycle;Max_cycle;Signal;HPM_P1;HPM_P2
2023/05/07 00:00:02;;;;;;;11.10;9.23;;;8.40;99.90;;;;;;5081269;28;20230;-94
2023/05/07 00:02:32;;;;;;;12.47;9.27;;;8.40;99.90;;;;;;5060143;28;20215;-94
2023/05/07 00:04:59;;;;;;;11.43;9.40;;;8.40;99.90;;;;;;5059023;28;20464;-95
2023/05/07 00:07:26;;;;;;;11.73;9.30;;;8.40;99.90;;;;;;5060878;28;20234;-95
2023/05/07 00:09:55;;;;;;;12.00;8.90;;;8.30;99.90;;;;;;5061323;28;20211;-95
2023/05/07 00:12:22;;;;;;;11.87;9.03;;;8.40;99.90;;;;;;5057890;28;20239;-95
2023/05/07 00:14:49;;;;;;;10.67;9.17;;;8.30;99.90;;;;;;5060996;28;20204;-96
2023/05/07 00:17:16;;;;;;;12.67;9.97;;;8.30;99.90;;;;;;5063914;28;20207;-96
2023/05/07 00:19:43;;;;;;;11.43;9.10;;;8.30;99.90;;;;;;5063212;28;20264;-94
2023/05/07 00:22:10;;;;;;;12.13;9.43;;;8.30;99.90;;;;;;5062036;28;20233;-96
2023/05/07 00:24:37;;;;;;;11.73;9.47;;;8.30;99.90;;;;;;5061712;28;20259;-96
2023/05/07 00:27:06;;;;;;;11.03;9.57;;;8.30;99.90;;;;;;5065248;28;20257;-95
2023/05/07 00:29:33;;;;;;;11.57;8.80;;;8.30;99.90;;;;;;5060562;28;20527;-95
2023/05/07 00:32:00;;;;;;;12.07;9.87;;;8.20;99.90;;;;;;5063375;28;20247;-95
2023/05/07 00:34:27;;;;;;;12.57;9.63;;;8.20;99.90;;;;;;5063432;28;20226;-96
2023/05/07 00:36:54;;;;;;;12.07;9.93;;;8.10;99.90;;;;;;5061528;28;20485;-95
2023/05/07 00:39:20;;;;;;;11.53;9.63;;;8.20;99.90;;;;;;5060812;28;20211;-96
2023/05/07 00:41:48;;;;;;;12.37;9.20;;;8.10;99.90;;;;;;5060526;28;20310;-95
2023/05/07 00:44:18;;;;;;;11.13;9.03;;;8.10;99.90;;;;;;5064398;28;20260;-96
2023/05/07 00:46:48;;;;;;;11.20;8.93;;;8.10;99.90;;;;;;5064015;28;20257;-94
2023/05/07 00:49:15;;;;;;;10.97;8.83;;;8.00;99.90;;;;;;5064400;28;20226;-94
2023/05/07 00:51:42;;;;;;;11.33;9.17;;;8.10;99.90;;;;;;5062399;28;20235;-94
2023/05/07 00:54:10;;;;;;;11.67;9.33;;;8.00;99.90;;;;;;5058613;28;20227;-93
2023/05/07 00:56:38;;;;;;;11.47;8.67;;;8.00;99.90;;;;;;5063840;28;20287;-93
2023/05/07 00:59:07;;;;;;;10.27;8.70;;;8.10;99.90;;;;;;5054974;28;20206;-93
2023/05/07 01:01:36;;;;;;;11.67;9.03;;;8.10;99.90;;;;;;5060929;28;20246;-93
2023/05/07 01:04:05;;;;;;;10.37;8.30;;;8.10;99.90;;;;;;5056786;28;20249;-93
2023/05/07 01:06:34;;;;;;;9.87;8.60;;;8.10;99.90;;;;;;5057135;28;20230;-92
2023/05/07 01:09:04;;;;;;;10.87;8.73;;;8.20;99.90;;;;;;5056248;28;20326;-93
2023/05/07 01:11:31;;;;;;;10.77;8.67;;;8.20;99.90;;;;;;5051843;28;20231;-92
2023/05/07 01:14:00;;;;;;;12.27;8.87;;;8.20;99.90;;;;;;5053123;28;20794;-92
2023/05/07 01:16:27;;;;;;;11.63;8.87;;;8.20;99.90;;;;;;5055412;28;20223;-93
2023/05/07 01:18:55;;;;;;;12.93;9.67;;;8.20;99.90;;;;;;5058008;28;20215;-94
2023/05/07 01:21:26;;;;;;;9.80;8.27;;;8.20;99.90;;;;;;5061950;28;20274;-95
2023/05/07 01:23:58;;;;;;;11.47;8.63;;;8.20;99.90;;;;;;5058953;28;20257;-94
2023/05/07 01:26:25;;;;;;;10.40;8.40;;;8.20;99.90;;;;;;5078959;28;20293;-94
2023/05/07 01:28:52;;;;;;;9.90;8.50;;;8.30;99.90;;;;;;5062386;28;20211;-95
2023/05/07 01:31:19;;;;;;;9.30;8.20;;;8.20;99.90;;;;;;5059810;28;20215;-96
2023/05/07 01:33:49;;;;;;;10.73;8.00;;;8.30;99.90;;;;;;5062790;28;20232;-94
2023/05/07 01:36:27;;;;;;;10.73;8.33;;;8.30;99.90;;;;;;5063621;28;20206;-95
2023/05/07 01:38:58;;;;;;;12.33;8.57;;;8.30;99.90;;;;;;5019845;22;20227;-80
2023/05/07 01:41:26;;;;;;;10.83;8.20;;;8.30;99.90;;;;;;5000110;28;20223;-80
2023/05/07 01:43:54;;;;;;;10.80;8.73;;;8.20;99.90;;;;;;5016577;28;20901;-80
2023/05/07 01:46:21;;;;;;;10.63;8.17;;;8.30;99.90;;;;;;4998500;28;20930;-81
2023/05/07 01:48:49;;;;;;;9.53;8.50;;;8.30;99.90;;;;;;4999864;28;20700;-80
2023/05/07 01:51:16;;;;;;;9.23;8.00;;;8.30;99.90;;;;;;4999994;28;20361;-80
2023/05/07 01:53:43;;;;;;;8.63;7.43;;;8.30;99.90;;;;;;4998246;28;20286;-81
2023/05/07 01:56:11;;;;;;;9.43;7.47;;;8.30;99.90;;;;;;4997881;28;20308;-80
2023/05/07 01:58:42;;;;;;;9.37;7.63;;;8.30;99.90;;;;;;4996608;28;20236;-80
2023/05/07 02:01:09;;;;;;;9.33;7.73;;;8.30;99.90;;;;;;5017114;28;20698;-80
2023/05/07 02:03:36;;;;;;;10.17;8.07;;;8.30;99.90;;;;;;5013486;28;20903;-80
2023/05/07 02:06:10;;;;;;;11.20;8.20;;;8.30;99.90;;;;;;5001228;28;20920;-79
2023/05/07 02:08:39;;;;;;;9.60;7.53;;;8.40;99.90;;;;;;4998596;28;20213;-81
2023/05/07 02:11:06;;;;;;;10.33;7.47;;;8.40;99.90;;;;;;4998889;28;20225;-80
2023/05/07 02:13:35;;;;;;;9.43;7.37;;;8.30;99.90;;;;;;4994053;28;20251;-80
2023/05/07 02:16:05;;;;;;;10.50;8.13;;;8.30;99.90;;;;;;4997304;28;20252;-80
2023/05/07 02:18:32;;;;;;;9.17;7.93;;;8.30;99.90;;;;;;4999572;28;20278;-79
2023/05/07 02:20:59;;;;;;;10.10;8.57;;;8.30;99.90;;;;;;4999508;28;20232;-79
2023/05/07 02:23:26;;;;;;;9.53;8.20;;;8.30;99.90;;;;;;4998807;28;20225;-79
2023/05/07 02:25:52;;;;;;;11.23;8.10;;;8.30;99.90;;;;;;5000943;28;21073;-80
2023/05/07 02:28:19;;;;;;;9.83;8.20;;;8.30;99.90;;;;;;4999925;28;20224;-80
2023/05/07 02:30:53;;;;;;;10.77;8.20;;;8.20;99.90;;;;;;4996508;28;20226;-80
2023/05/07 02:33:22;;;;;;;9.20;8.13;;;8.20;99.90;;;;;;4995166;28;20318;-80
2023/05/07 02:35:49;;;;;;;9.77;8.07;;;8.20;99.90;;;;;;5002104;28;20589;-80
2023/05/07 02:38:16;;;;;;;10.10;8.37;;;8.20;99.90;;;;;;5001238;28;21025;-80
2023/05/07 02:40:44;;;;;;;9.63;8.07;;;8.20;99.90;;;;;;4992095;28;20229;-80
2023/05/07 02:43:11;;;;;;;10.23;8.53;;;8.30;99.90;;;;;;4994418;28;20709;-80
2023/05/07 02:45:38;;;;;;;9.60;8.40;;;8.30;99.90;;;;;;5010522;28;20241;-81
2023/05/07 02:48:06;;;;;;;11.67;9.27;;;8.30;99.90;;;;;;4999945;28;20291;-80
2023/05/07 02:50:35;;;;;;;11.17;8.67;;;8.30;99.90;;;;;;4998473;28;20758;-80
2023/05/07 02:53:02;;;;;;;11.30;8.70;;;8.30;99.90;;;;;;4997793;28;20235;-80
2023/05/07 02:55:29;;;;;;;10.33;8.23;;;8.30;99.90;;;;;;5016530;28;21370;-81
2023/05/07 02:57:56;;;;;;;10.87;8.67;;;8.30;99.90;;;;;;4995847;28;20231;-80
2023/05/07 03:00:24;;;;;;;9.23;8.30;;;8.30;99.90;;;;;;4993781;28;20223;-79
2023/05/07 03:03:10;;;;;;;10.03;8.13;;;8.30;99.90;;;;;;4997901;28;20293;-79
2023/05/07 03:05:39;;;;;;;11.27;8.30;;;8.30;99.90;;;;;;5000746;28;20943;-80
2023/05/07 03:08:06;;;;;;;10.00;8.87;;;8.30;99.90;;;;;;4998786;28;20224;-80
2023/05/07 03:10:33;;;;;;;9.33;7.90;;;8.30;99.90;;;;;;5009910;28;20742;-80
2023/05/07 03:13:00;;;;;;;9.93;7.77;;;8.30;99.90;;;;;;5000051;28;20233;-80
2023/05/07 03:15:27;;;;;;;9.70;7.80;;;8.30;99.90;;;;;;4998473;28;20225;-80
2023/05/07 03:17:54;;;;;;;10.83;8.87;;;8.30;99.90;;;;;;4998067;28;20221;-79
2023/05/07 03:20:21;;;;;;;9.87;8.67;;;8.30;99.90;;;;;;4998131;28;20223;-80
2023/05/07 03:22:49;;;;;;;10.03;8.43;;;8.30;99.90;;;;;;4994374;28;20233;-79
2023/05/07 03:25:15;;;;;;;10.13;8.40;;;8.30;99.90;;;;;;4995883;28;20232;-80
2023/05/07 03:27:42;;;;;;;9.33;8.43;;;8.20;99.90;;;;;;4998785;28;20217;-79
2023/05/07 03:30:10;;;;;;;11.03;8.80;;;8.20;99.90;;;;;;4996593;28;20225;-79
2023/05/07 03:32:37;;;;;;;9.00;8.10;;;8.20;99.90;;;;;;5014313;28;20229;-79
2023/05/07 03:35:08;;;;;;;10.53;8.73;;;8.20;99.90;;;;;;4997854;28;20255;-79
2023/05/07 03:37:35;;;;;;;10.57;7.87;;;8.20;99.90;;;;;;4999023;28;20240;-79
2023/05/07 03:40:03;;;;;;;9.00;7.60;;;8.20;99.90;;;;;;4995975;28;20215;-80
2023/05/07 03:42:34;;;;;;;11.00;8.83;;;8.20;99.90;;;;;;4996391;28;20233;-78
2023/05/07 03:45:00;;;;;;;11.57;8.13;;;8.20;99.90;;;;;;4998422;28;20224;-80
2023/05/07 03:47:27;;;;;;;10.43;8.37;;;8.20;99.90;;;;;;4994466;28;20220;-81
2023/05/07 03:49:56;;;;;;;12.50;8.23;;;8.20;99.90;;;;;;4996539;28;20224;-81
2023/05/07 03:52:25;;;;;;;11.53;8.50;;;8.20;99.90;;;;;;5005142;28;20942;-79
2023/05/07 03:54:54;;;;;;;10.37;7.77;;;8.20;99.90;;;;;;5003121;28;20223;-80
2023/05/07 03:57:23;;;;;;;10.17;7.97;;;8.20;99.90;;;;;;5014986;28;20217;-80
2023/05/07 03:59:50;;;;;;;10.70;8.63;;;8.20;99.90;;;;;;5000456;28;20702;-80
2023/05/07 04:02:17;;;;;;;10.70;8.53;;;8.20;99.90;;;;;;5017778;28;20216;-80
2023/05/07 04:04:44;;;;;;;10.07;8.57;;;8.10;99.90;;;;;;5001846;28;20228;-80
2023/05/07 04:07:11;;;;;;;10.90;8.33;;;8.20;99.90;;;;;;5011132;28;20219;-80
2023/05/07 04:09:42;;;;;;;9.70;8.20;;;8.20;99.90;;;;;;4998117;28;20319;-80
2023/05/07 04:12:10;;;;;;;9.93;8.00;;;8.10;99.90;;;;;;5017390;28;20525;-80
2023/05/07 04:14:38;;;;;;;10.67;8.00;;;8.20;99.90;;;;;;5003445;28;20572;-80
2023/05/07 04:17:05;;;;;;;10.30;8.33;;;8.20;99.90;;;;;;5000308;28;20231;-80
2023/05/07 04:19:34;;;;;;;9.53;8.27;;;8.20;99.90;;;;;;5001861;28;20725;-79
2023/05/07 04:22:02;;;;;;;8.83;7.90;;;8.20;99.90;;;;;;4998300;28;20228;-80
2023/05/07 04:24:33;;;;;;;10.43;7.67;;;8.20;99.90;;;;;;4998215;28;20337;-81
2023/05/07 04:27:01;;;;;;;9.30;7.93;;;8.30;99.90;;;;;;5003222;28;20223;-80
2023/05/07 04:29:28;;;;;;;10.43;8.77;;;8.30;99.90;;;;;;5003472;28;20236;-81
2023/05/07 04:31:58;;;;;;;8.97;7.80;;;8.30;99.90;;;;;;5003650;28;20912;-80
2023/05/07 04:34:25;;;;;;;10.00;7.97;;;8.30;99.90;;;;;;5004063;28;20235;-79
2023/05/07 04:36:53;;;;;;;10.20;7.77;;;8.30;99.90;;;;;;5002834;28;20223;-79
2023/05/07 04:39:20;;;;;;;9.07;7.20;;;8.40;99.90;;;;;;5001435;28;20647;-80
2023/05/07 04:41:48;;;;;;;8.93;6.97;;;8.40;99.90;;;;;;5003260;28;20225;-80
2023/05/07 04:44:15;;;;;;;8.73;7.10;;;8.40;99.90;;;;;;5001310;28;20779;-80
2023/05/07 04:46:42;;;;;;;9.37;7.63;;;8.40;99.90;;;;;;5002974;28;20223;-81
2023/05/07 04:49:11;;;;;;;8.47;7.10;;;8.40;99.90;;;;;;5021259;28;20360;-80
2023/05/07 04:51:38;;;;;;;8.77;6.97;;;8.40;99.90;;;;;;5016310;28;20730;-80
2023/05/07 04:54:04;;;;;;;8.90;6.57;;;8.40;99.90;;;;;;4999946;28;20227;-79
2023/05/07 04:56:32;;;;;;;8.07;6.93;;;8.40;99.90;;;;;;5001840;28;20707;-81
2023/05/07 04:59:00;;;;;;;8.40;6.63;;;8.50;99.90;;;;;;5002939;28;20240;-80
2023/05/07 05:01:26;;;;;;;7.30;6.40;;;8.50;99.90;;;;;;5000026;28;20228;-80
2023/05/07 05:03:53;;;;;;;8.03;6.03;;;8.50;99.90;;;;;;4998256;28;20321;-80
2023/05/07 05:06:22;;;;;;;8.33;6.13;;;8.50;99.90;;;;;;5000387;28;20902;-80
2023/05/07 05:08:50;;;;;;;7.17;6.47;;;8.50;99.90;;;;;;5017117;28;20846;-81
2023/05/07 05:11:17;;;;;;;8.13;7.10;;;8.60;99.90;;;;;;5017700;28;20218;-79
2023/05/07 05:13:44;;;;;;;7.30;6.50;;;8.60;99.90;;;;;;5003661;28;20705;-79
2023/05/07 05:16:16;;;;;;;8.97;6.43;;;8.50;99.90;;;;;;5018088;28;20252;-79
2023/05/07 05:18:43;;;;;;;8.50;6.23;;;8.60;99.90;;;;;;4998198;28;20237;-80
2023/05/07 05:21:12;;;;;;;8.37;6.83;;;8.60;99.90;;;;;;4999476;28;20227;-80
2023/05/07 05:23:43;;;;;;;7.70;6.87;;;8.60;99.90;;;;;;5016488;28;20231;-82
2023/05/07 05:26:10;;;;;;;7.17;6.47;;;8.60;99.90;;;;;;5013425;28;20234;-81
2023/05/07 05:28:37;;;;;;;8.87;6.87;;;8.70;99.90;;;;;;5001397;28;20236;-81
2023/05/07 05:31:05;;;;;;;8.70;7.20;;;8.70;99.90;;;;;;4998301;28;20227;-81
2023/05/07 05:33:35;;;;;;;8.77;7.40;;;8.70;99.90;;;;;;4999778;28;20686;-81
2023/05/07 05:36:05;;;;;;;7.63;6.80;;;8.70;99.90;;;;;;5014937;28;20275;-81
2023/05/07 05:38:32;;;;;;;8.77;7.30;;;8.80;99.90;;;;;;4999982;28;20283;-81
2023/05/07 05:41:00;;;;;;;8.67;6.57;;;8.80;99.90;;;;;;4997187;28;20229;-81
2023/05/07 05:43:29;;;;;;;8.43;6.67;;;8.80;99.90;;;;;;4997749;28;20320;-81
2023/05/07 05:45:57;;;;;;;7.97;7.03;;;8.80;99.90;;;;;;5001251;28;20225;-81
2023/05/07 05:48:24;;;;;;;7.80;6.80;;;8.90;99.90;;;;;;4996857;28;20288;-81
2023/05/07 05:50:51;;;;;;;7.70;6.63;;;8.90;99.90;;;;;;5000106;28;20230;-81
2023/05/07 05:53:19;;;;;;;7.63;6.83;;;8.90;99.90;;;;;;5000945;28;20209;-81
2023/05/07 05:55:46;;;;;;;8.70;6.87;;;8.90;99.90;;;;;;5000631;28;20221;-81
2023/05/07 05:58:14;;;;;;;8.40;6.70;;;9.00;99.90;;;;;;4999299;28;20217;-80
2023/05/07 06:00:45;;;;;;;6.97;6.27;;;9.10;99.90;;;;;;5000874;28;20274;-81
2023/05/07 06:03:12;;;;;;;6.77;6.07;;;9.10;99.90;;;;;;4988207;28;20225;-80
2023/05/07 06:05:39;;;;;;;7.10;6.40;;;9.20;99.90;;;;;;5022586;28;20237;-81
2023/05/07 06:08:05;;;;;;;7.40;6.53;;;9.20;99.90;;;;;;4999403;28;20327;-80
2023/05/07 06:10:34;;;;;;;7.67;6.17;;;9.30;99.90;;;;;;5000113;28;20226;-80
2023/05/07 06:13:01;;;;;;;7.30;6.13;;;9.30;99.90;;;;;;5000225;28;20229;-79
2023/05/07 06:15:30;;;;;;;6.93;6.23;;;9.40;99.90;;;;;;5000626;28;20264;-79
2023/05/07 06:18:02;;;;;;;7.37;6.10;;;9.40;99.90;;;;;;5002276;28;20234;-79
2023/05/07 06:20:28;;;;;;;7.27;6.50;;;9.40;99.90;;;;;;5002202;28;20765;-80
2023/05/07 06:22:55;;;;;;;6.33;5.73;;;9.40;99.90;;;;;;5004715;28;20225;-80
2023/05/07 06:25:22;;;;;;;6.73;5.80;;;9.40;99.90;;;;;;5002378;28;20712;-80
2023/05/07 06:27:49;;;;;;;7.33;6.63;;;9.40;99.90;;;;;;5004862;28;20228;-80
2023/05/07 06:30:16;;;;;;;7.80;6.03;;;9.40;99.90;;;;;;5000806;28;20229;-79
2023/05/07 06:32:44;;;;;;;6.60;5.47;;;9.40;99.90;;;;;;5002025;28;20232;-79
2023/05/07 06:35:12;;;;;;;7.13;5.90;;;9.40;99.90;;;;;;5000290;28;20221;-80
2023/05/07 06:37:42;;;;;;;7.13;6.23;;;9.40;99.90;;;;;;5005476;28;20232;-80
2023/05/07 06:40:13;;;;;;;7.43;5.70;;;9.40;99.90;;;;;;5001817;28;20224;-79
2023/05/07 06:42:40;;;;;;;6.63;5.70;;;9.40;99.90;;;;;;5002481;28;20277;-80
2023/05/07 06:45:25;;;;;;;7.00;5.80;;;9.50;99.90;;;;;;5000032;28;20242;-77
2023/05/07 06:47:54;;;;;;;6.87;5.67;;;9.50;99.90;;;;;;4996495;28;20228;-79
2023/05/07 06:50:21;;;;;;;7.60;5.70;;;9.60;99.90;;;;;;4999904;28;20241;-76
2023/05/07 06:52:49;;;;;;;5.97;5.33;;;9.60;99.90;;;;;;5018803;28;20739;-75
2023/05/07 06:55:15;;;;;;;6.60;5.40;;;9.60;99.90;;;;;;5002801;28;20767;-76
2023/05/07 06:57:42;;;;;;;6.20;5.20;;;9.60;99.90;;;;;;4996859;28;20230;-76
2023/05/07 07:00:10;;;;;;;5.77;5.00;;;9.70;99.90;;;;;;5000092;28;20240;-77
2023/05/07 07:02:44;;;;;;;6.70;5.53;;;9.60;99.90;;;;;;5002116;28;20283;-77
2023/05/07 07:05:13;;;;;;;6.10;5.47;;;9.70;99.90;;;;;;4996658;28;20229;-76
2023/05/07 07:07:40;;;;;;;5.93;5.33;;;9.70;99.90;;;;;;5002316;28;20229;-76
2023/05/07 07:10:08;;;;;;;5.70;4.70;;;9.80;99.90;;;;;;5017483;28;20252;-77
2023/05/07 07:12:35;;;;;;;5.70;5.07;;;9.80;99.90;;;;;;5000369;28;20284;-77
2023/05/07 07:15:02;;;;;;;5.53;4.87;;;9.80;99.90;;;;;;5004027;28;20826;-76
2023/05/07 07:17:29;;;;;;;6.23;5.17;;;9.90;99.90;;;;;;5015826;28;20223;-78
2023/05/07 07:19:56;;;;;;;6.07;4.70;;;10.00;99.90;;;;;;5002027;28;20237;-77
2023/05/07 07:22:24;;;;;;;5.60;5.03;;;10.00;99.90;;;;;;5013116;28;21011;-77
2023/05/07 07:24:51;;;;;;;6.60;4.93;;;10.00;99.90;;;;;;5019000;28;20229;-76
2023/05/07 07:27:18;;;;;;;4.80;4.30;;;10.10;99.90;;;;;;5007714;28;20221;-77
2023/05/07 07:29:45;;;;;;;5.90;5.10;;;10.10;99.90;;;;;;4999378;28;20248;-77
2023/05/07 07:32:12;;;;;;;5.70;5.10;;;10.20;99.90;;;;;;5006009;28;20237;-77
2023/05/07 07:34:38;;;;;;;6.43;4.80;;;10.20;99.90;;;;;;5008324;28;20300;-77
2023/05/07 07:37:06;;;;;;;5.70;4.70;;;10.20;99.90;;;;;;5007753;28;20798;-77
2023/05/07 07:39:34;;;;;;;6.73;5.00;;;10.30;99.90;;;;;;5011738;28;20224;-77
2023/05/07 07:42:01;;;;;;;5.43;4.93;;;10.40;99.90;;;;;;5002529;28;20670;-77
2023/05/07 07:44:30;;;;;;;5.47;4.60;;;10.50;99.90;;;;;;5006958;28;20291;-77
2023/05/07 07:47:00;;;;;;;5.80;5.20;;;10.60;99.90;;;;;;5006753;28;20316;-77
2023/05/07 07:49:28;;;;;;;5.50;4.73;;;10.60;99.90;;;;;;5007428;28;20233;-76
2023/05/07 07:51:56;;;;;;;5.33;4.83;;;10.70;99.90;;;;;;5008111;28;20230;-77
2023/05/07 07:54:23;;;;;;;5.20;4.70;;;10.80;99.90;;;;;;5007135;28;20227;-77
2023/05/07 07:56:51;;;;;;;5.93;4.90;;;10.80;99.90;;;;;;5007534;28;20706;-77
2023/05/07 07:59:18;;;;;;;5.20;4.53;;;10.80;99.90;;;;;;5006667;28;20224;-76
2023/05/07 08:01:48;;;;;;;5.23;4.73;;;10.80;99.90;;;;;;5010083;28;20252;-77
2023/05/07 08:04:15;;;;;;;5.83;5.07;;;10.80;99.90;;;;;;5004064;28;20283;-76
2023/05/07 08:06:43;;;;;;;6.93;5.10;;;10.80;99.90;;;;;;5007545;28;20718;-77
2023/05/07 08:09:10;;;;;;;6.37;4.90;;;10.80;99.90;;;;;;5007893;28;20250;-76
2023/05/07 08:11:39;;;;;;;6.50;5.13;;;10.80;99.90;;;;;;5007200;28;20228;-77
2023/05/07 08:14:07;;;;;;;5.80;5.23;;;10.80;99.90;;;;;;5007085;28;20214;-77
2023/05/07 08:16:34;;;;;;;5.27;4.77;;;10.80;99.90;;;;;;5007429;28;20919;-77
2023/05/07 08:19:02;;;;;;;6.63;4.77;;;10.80;99.90;;;;;;5007695;28;20796;-77
2023/05/07 08:21:28;;;;;;;6.10;4.93;;;10.80;99.90;;;;;;5003926;28;20312;-76
2023/05/07 08:23:55;;;;;;;4.93;4.43;;;10.90;99.90;;;;;;5006970;28;20291;-77
2023/05/07 08:26:22;;;;;;;6.40;4.70;;;10.90;99.90;;;;;;5005097;28;20239;-77
2023/05/07 08:28:48;;;;;;;5.30;4.80;;;10.90;99.90;;;;;;5005300;28;20232;-77
2023/05/07 08:31:16;;;;;;;6.13;4.87;;;11.00;99.90;;;;;;5002022;28;20217;-77
2023/05/07 08:33:45;;;;;;;5.73;4.63;;;11.00;99.90;;;;;;5004863;28;20748;-77
2023/05/07 08:36:12;;;;;;;5.23;4.73;;;11.10;99.90;;;;;;5004299;28;20221;-77
2023/05/07 08:38:40;;;;;;;7.37;4.53;;;11.20;99.90;;;;;;5007948;28;20230;-76
2023/05/07 08:41:07;;;;;;;4.97;4.37;;;11.30;99.90;;;;;;5001817;28;20696;-76
2023/05/07 08:43:36;;;;;;;5.20;4.70;;;11.40;99.90;;;;;;5023210;28;20240;-77
2023/05/07 08:46:05;;;;;;;5.23;4.53;;;11.50;99.90;;;;;;5003407;28;20280;-76
2023/05/07 08:48:37;;;;;;;5.50;4.90;;;11.60;99.90;;;;;;5020733;28;20227;-78
2023/05/07 08:51:13;;;;;;;4.73;4.30;;;11.60;99.90;;;;;;5001743;28;20231;-77
2023/05/07 08:53:41;;;;;;;4.63;4.23;;;11.80;99.90;;;;;;5007518;28;20232;-77
2023/05/07 08:56:11;;;;;;;6.90;4.27;;;11.80;99.90;;;;;;5004059;28;20235;-76
2023/05/07 08:58:38;;;;;;;4.73;4.33;;;11.90;99.90;;;;;;5006789;28;20307;-77
2023/05/07 09:01:09;;;;;;;5.27;4.10;;;11.90;99.90;;;;;;4998119;28;20228;-76
2023/05/07 09:03:39;;;;;;;4.53;3.40;;;11.90;99.90;;;;;;5000414;28;20229;-76
2023/05/07 09:06:06;;;;;;;4.57;3.70;;;11.90;99.90;;;;;;5001784;28;20638;-76
2023/05/07 09:08:34;;;;;;;5.47;4.23;;;11.90;99.90;;;;;;4993966;28;20223;-76
2023/05/07 09:11:03;;;;;;;4.20;3.77;;;12.00;99.90;;;;;;5014662;28;20231;-76
2023/05/07 09:13:30;;;;;;;5.40;3.43;;;12.00;99.90;;;;;;5007404;28;20230;-77
2023/05/07 09:15:58;;;;;;;4.03;3.60;;;12.00;99.90;;;;;;5003010;28;20291;-77
2023/05/07 09:18:26;;;;;;;4.33;3.93;;;12.00;99.90;;;;;;5016507;28;20314;-77
2023/05/07 09:20:56;;;;;;;6.07;4.07;;;12.10;99.90;;;;;;5019653;28;21419;-77
2023/05/07 09:23:22;;;;;;;4.73;3.80;;;12.10;99.90;;;;;;5004460;28;20229;-77
2023/05/07 09:25:49;;;;;;;4.37;3.80;;;12.10;99.90;;;;;;5000741;28;20593;-78
2023/05/07 09:28:22;;;;;;;5.30;3.63;;;12.20;99.90;;;;;;5001222;28;20247;-80
2023/05/07 09:30:49;;;;;;;4.30;3.90;;;12.20;99.90;;;;;;4998137;28;20632;-79
2023/05/07 09:33:16;;;;;;;3.83;3.50;;;12.30;99.90;;;;;;5014146;28;20235;-79
2023/05/07 09:35:51;;;;;;;4.87;3.60;;;12.30;99.90;;;;;;5024186;28;20255;-79
2023/05/07 09:38:21;;;;;;;5.60;4.00;;;12.40;99.90;;;;;;4997746;28;20281;-79
2023/05/07 09:41:02;;;;;;;4.20;3.80;;;12.40;99.90;;;;;;5021229;28;20312;-79
2023/05/07 09:43:34;;;;;;;4.27;3.80;;;12.40;99.90;;;;;;5003896;28;20485;-79
2023/05/07 09:46:04;;;;;;;4.63;3.93;;;12.40;99.90;;;;;;5004464;28;20766;-79
2023/05/07 09:48:31;;;;;;;4.33;3.80;;;12.50;99.90;;;;;;5002600;28;20260;-79
2023/05/07 09:51:03;;;;;;;3.80;3.40;;;12.50;99.90;;;;;;5006211;28;20255;-79
2023/05/07 09:53:34;;;;;;;4.47;3.80;;;12.60;99.90;;;;;;5001799;28;20369;-79
2023/05/07 09:56:05;;;;;;;6.33;3.33;;;12.70;99.90;;;;;;5004269;28;20992;-79
2023/05/07 09:58:34;;;;;;;6.63;3.77;;;12.80;99.90;;;;;;5003494;28;20308;-79
2023/05/07 10:01:02;;;;;;;4.37;3.40;;;12.90;99.90;;;;;;5004048;28;20244;-78
2023/05/07 10:03:31;;;;;;;4.73;4.10;;;13.00;99.90;;;;;;5001087;28;20236;-79
2023/05/07 10:06:04;;;;;;;3.97;3.50;;;13.00;99.90;;;;;;5002059;28;20223;-79
2023/05/07 10:08:32;;;;;;;3.80;3.47;;;13.00;99.90;;;;;;5002434;28;20855;-78
2023/05/07 10:11:03;;;;;;;3.77;3.37;;;13.10;99.90;;;;;;5025027;28;20231;-78
2023/05/07 10:13:31;;;;;;;3.90;3.50;;;13.20;99.90;;;;;;5004207;28;20236;-80
2023/05/07 10:16:01;;;;;;;5.40;4.00;;;13.30;99.90;;;;;;5018534;28;20296;-80
2023/05/07 10:18:33;;;;;;;3.97;3.50;;;13.50;99.90;;;;;;5001671;28;20646;-78
2023/05/07 10:21:09;;;;;;;4.70;3.60;;;13.70;99.90;;;;;;5003494;28;20224;-78
2023/05/07 10:23:37;;;;;;;3.60;3.30;;;13.90;99.90;;;;;;5003815;28;20716;-79
2023/05/07 10:26:09;;;;;;;3.90;3.07;;;14.00;99.90;;;;;;5002314;28;20223;-77
2023/05/07 10:28:39;;;;;;;4.00;3.20;;;14.20;99.70;;;;;;5001835;28;20231;-77
2023/05/07 10:31:41;;;;;;;4.17;3.30;;;14.20;99.80;;;;;;5000371;28;20297;-77
2023/05/07 10:34:11;;;;;;;3.93;3.10;;;14.20;99.60;;;;;;5019030;28;20220;-76
2023/05/07 10:36:39;;;;;;;4.33;3.40;;;14.30;99.90;;;;;;5004137;28;20219;-77
2023/05/07 10:39:07;;;;;;;3.43;3.10;;;14.40;99.90;;;;;;5018543;28;20256;-76
2023/05/07 10:41:36;;;;;;;3.63;3.30;;;14.50;99.90;;;;;;5000781;28;20278;-77
2023/05/07 10:44:03;;;;;;;4.17;3.10;;;14.60;99.90;;;;;;5004221;28;20227;-77
2023/05/07 10:46:35;;;;;;;3.50;3.13;;;14.70;99.70;;;;;;5000991;28;20223;-76
2023/05/07 10:49:13;;;;;;;3.57;3.27;;;14.80;99.60;;;;;;5014261;28;20302;-78
2023/05/07 10:52:15;;;;;;;3.80;3.40;;;14.90;99.70;;;;;;5000819;28;20786;-77
2023/05/07 10:54:47;;;;;;;5.07;3.40;;;14.90;99.20;;;;;;5001874;28;20232;-77
2023/05/07 10:57:36;;;;;;;4.03;3.30;;;14.90;98.60;;;;;;5015155;28;20224;-77
2023/05/07 11:00:41;;;;;;;3.10;2.80;;;14.80;98.20;;;;;;5002219;28;20232;-76
2023/05/07 11:03:14;;;;;;;3.50;3.20;;;14.60;97.30;;;;;;5000433;28;20307;-77
2023/05/07 11:06:10;;;;;;;3.50;3.20;;;14.40;98.70;;;;;;5002447;28;20218;-77
2023/05/07 11:08:54;;;;;;;3.87;3.13;;;14.40;98.30;;;;;;5001718;28;20221;-77
2023/05/07 11:11:47;;;;;;;4.37;2.97;;;14.40;99.40;;;;;;4997496;28;20225;-78
2023/05/07 11:14:46;;;;;;;3.30;3.00;;;14.40;98.80;;;;;;4994058;28;20234;-78
2023/05/07 11:17:18;;;;;;;3.10;2.80;;;14.40;98.50;;;;;;4998977;28;20215;-78
2023/05/07 11:19:51;;;;;;;3.30;2.57;;;14.40;98.50;;;;;;5002323;28;20223;-77
2023/05/07 11:22:39;;;;;;;4.80;3.00;;;14.30;98.20;;;;;;5001403;28;20238;-77
2023/05/07 11:25:38;;;;;;;3.47;2.70;;;14.50;98.90;;;;;;5000252;28;20226;-77
2023/05/07 11:28:13;;;;;;;2.97;2.60;;;14.60;99.10;;;;;;5019081;28;20232;-78
2023/05/07 11:30:50;;;;;;;3.60;2.57;;;14.70;99.40;;;;;;4993425;28;20778;-77
2023/05/07 11:33:20;;;;;;;2.83;2.40;;;14.90;98.10;;;;;;4997590;28;20302;-78
2023/05/07 11:35:48;;;;;;;2.57;2.33;;;14.90;97.80;;;;;;5002332;28;20235;-78
2023/05/07 11:38:19;;;;;;;2.57;2.37;;;15.00;98.00;;;;;;4998937;28;20229;-77
2023/05/07 11:40:52;;;;;;;5.10;2.80;;;15.00;97.70;;;;;;4999262;28;20219;-77
2023/05/07 11:43:19;;;;;;;3.17;2.40;;;14.90;97.30;;;;;;4997987;28;20897;-78
2023/05/07 11:45:47;;;;;;;3.13;2.47;;;15.00;98.10;;;;;;5005188;28;20220;-78
2023/05/07 11:48:15;;;;;;;3.00;2.80;;;14.90;97.80;;;;;;5001098;28;20795;-78
2023/05/07 11:50:51;;;;;;;4.10;2.50;;;15.00;97.80;;;;;;5001890;28;21001;-78
2023/05/07 11:53:18;;;;;;;3.90;2.30;;;15.10;97.70;;;;;;4999887;28;20690;-78
2023/05/07 11:55:45;;;;;;;3.00;2.70;;;15.20;98.00;;;;;;5002185;28;20879;-78
2023/05/07 11:58:20;;;;;;;3.67;2.23;;;15.40;98.00;;;;;;4997742;28;20235;-77
2023/05/07 12:00:50;;;;;;;2.73;2.40;;;15.50;96.50;;;;;;5002338;28;20215;-78
2023/05/07 12:03:18;;;;;;;2.70;2.20;;;15.60;97.20;;;;;;5002729;28;20241;-77
2023/05/07 12:05:45;;;;;;;4.07;2.30;;;15.70;97.90;;;;;;5001633;28;20263;-77
2023/05/07 12:08:15;;;;;;;2.47;2.27;;;15.90;96.70;;;;;;5001878;28;20698;-78
2023/05/07 12:10:42;;;;;;;2.60;2.40;;;16.10;97.40;;;;;;5003664;28;20617;-78
2023/05/07 12:13:15;;;;;;;3.63;2.23;;;16.30;97.60;;;;;;5006235;28;20235;-77
2023/05/07 12:15:42;;;;;;;2.43;2.03;;;16.50;97.20;;;;;;5003869;28;20232;-77
2023/05/07 12:18:09;;;;;;;2.30;2.10;;;16.80;97.80;;;;;;5003067;28;20234;-77
2023/05/07 12:20:38;;;;;;;2.33;2.13;;;17.10;97.20;;;;;;5007037;28;20351;-77
2023/05/07 12:23:05;;;;;;;1.97;1.77;;;17.30;96.00;;;;;;5003503;28;20712;-78
2023/05/07 12:25:32;;;;;;;2.83;1.80;;;17.50;96.20;;;;;;5008733;28;20225;-78
2023/05/07 12:28:00;;;;;;;1.80;1.70;;;17.50;95.40;;;;;;5006870;28;20252;-78
2023/05/07 12:30:27;;;;;;;2.50;1.87;;;17.60;95.30;;;;;;5004160;28;20228;-77
2023/05/07 12:32:54;;;;;;;2.20;2.00;;;17.60;93.50;;;;;;5005626;28;20731;-78
2023/05/07 12:35:27;;;;;;;2.90;2.27;;;17.50;93.90;;;;;;5002226;28;20225;-78
2023/05/07 12:38:03;;;;;;;2.97;1.80;;;17.50;93.60;;;;;;5006581;28;20225;-78
2023/05/07 12:40:37;;;;;;;2.10;1.70;;;17.30;93.50;;;;;;5006004;28;20233;-78
2023/05/07 12:43:03;;;;;;;1.93;1.80;;;17.20;93.20;;;;;;5001548;28;20231;-77
2023/05/07 12:45:30;;;;;;;2.67;2.20;;;17.10;94.10;;;;;;5005274;28;20233;-77
2023/05/07 12:48:01;;;;;;;2.00;1.70;;;17.10;94.10;;;;;;5005920;28;20283;-77
2023/05/07 12:50:32;;;;;;;1.77;1.67;;;17.00;93.80;;;;;;5004708;28;20860;-80
2023/05/07 12:53:00;;;;;;;1.70;1.50;;;16.90;93.30;;;;;;5005395;28;20794;-80
2023/05/07 12:55:27;;;;;;;2.00;1.77;;;16.90;94.30;;;;;;5005547;28;20618;-80
2023/05/07 12:57:54;;;;;;;2.77;1.80;;;16.80;94.30;;;;;;5009254;28;20749;-80
2023/05/07 13:00:34;;;;;;;2.73;1.63;;;16.80;94.40;;;;;;5005338;28;20249;-80